createdAt,value
2022-11-17T00:01:01.097Z,100
2022-11-17T00:06:01.077Z,100
2022-11-17T00:11:01.084Z,100
2022-11-17T00:16:01.091Z,100
2022-11-17T00:21:01.071Z,100
2022-11-17T00:26:01.073Z,100
2022-11-17T00:31:01.063Z,100
2022-11-17T00:36:01.052Z,100
2022-11-17T00:41:01.043Z,100
2022-11-17T00:46:01.063Z,100
2022-11-17T00:51:01.056Z,100
2022-11-17T00:56:01.042Z,100
2022-11-17T01:01:01.100Z,100
2022-11-17T01:06:01.048Z,100
2022-11-17T01:11:01.033Z,100
2022-11-17T01:16:01.037Z,100
2022-11-17T01:21:01.026Z,100
2022-11-17T01:26:01.046Z,100
2022-11-17T01:31:01.014Z,100
2022-11-17T01:36:01.017Z,100
2022-11-17T01:41:01.017Z,100
2022-11-17T01:46:01.006Z,100
2022-11-17T01:51:01.032Z,100
2022-11-17T01:56:01.016Z,100
2022-11-17T02:01:01.028Z,100
2022-11-17T02:06:00.997Z,100
2022-11-17T02:11:01.012Z,100
2022-11-17T02:16:00.997Z,100
2022-11-17T02:21:00.999Z,100
2022-11-17T02:26:01.039Z,100
2022-11-17T02:31:00.985Z,100
2022-11-17T02:36:01.000Z,100
2022-11-17T02:41:01.013Z,100
2022-11-17T02:46:00.986Z,100
2022-11-17T02:51:00.973Z,100
2022-11-17T02:56:00.970Z,100
2022-11-17T03:01:00.975Z,100
2022-11-17T03:06:00.972Z,100
2022-11-17T03:11:00.975Z,100
2022-11-17T03:16:00.951Z,100
2022-11-17T03:21:00.955Z,100
2022-11-17T03:26:00.950Z,100
2022-11-17T03:31:00.964Z,100
2022-11-17T03:36:00.941Z,100
2022-11-17T03:41:00.950Z,100
2022-11-17T03:46:00.937Z,100
2022-11-17T03:51:00.936Z,100
2022-11-17T03:56:00.925Z,100
2022-11-17T04:01:00.923Z,100
2022-11-17T04:06:00.924Z,100
2022-11-17T04:11:00.933Z,100
2022-11-17T04:16:00.913Z,100
2022-11-17T04:21:00.940Z,100
2022-11-17T04:26:00.939Z,100
2022-11-17T04:31:00.906Z,100
2022-11-17T04:36:00.913Z,100
2022-11-17T04:41:00.911Z,100
2022-11-17T04:46:00.915Z,100
2022-11-17T04:51:00.902Z,100
2022-11-17T04:56:00.933Z,100
2022-11-17T05:01:00.920Z,100
2022-11-17T05:06:00.891Z,100
2022-11-17T05:11:00.946Z,100
2022-11-17T05:16:00.885Z,100
2022-11-17T05:21:00.893Z,100
2022-11-17T05:26:00.881Z,100
2022-11-17T05:31:00.885Z,100
2022-11-17T05:36:00.887Z,100
2022-11-17T05:41:00.862Z,100
2022-11-17T05:46:00.897Z,100
2022-11-17T05:51:00.881Z,100
2022-11-17T05:56:00.855Z,100
2022-11-17T06:01:00.881Z,100
2022-11-17T06:06:00.852Z,100
2022-11-17T06:11:00.854Z,100
2022-11-17T06:16:00.856Z,100
2022-11-17T06:21:00.854Z,100
2022-11-17T06:26:00.844Z,100
2022-11-17T06:31:00.845Z,100
2022-11-17T06:36:00.849Z,100
2022-11-17T06:41:00.844Z,100
2022-11-17T06:46:00.825Z,100
2022-11-17T06:51:00.838Z,100
2022-11-17T06:56:00.825Z,100
2022-11-17T07:01:00.891Z,100
2022-11-17T07:06:00.835Z,100
2022-11-17T07:11:00.868Z,100
2022-11-17T07:21:00.806Z,100
2022-11-17T07:31:00.801Z,100
2022-11-17T07:41:00.801Z,99.5
2022-11-17T08:06:00.776Z,98
2022-11-17T08:21:00.756Z,97.6
2022-11-17T08:26:00.770Z,96.9
2022-11-17T08:31:00.757Z,96.6
2022-11-17T08:36:00.763Z,96.3
2022-11-17T08:41:00.787Z,95.4
2022-11-17T08:46:00.752Z,96
2022-11-17T08:51:00.741Z,95.5
2022-11-17T08:56:00.739Z,96
2022-11-17T09:01:05.037Z,96.3
2022-11-17T09:06:00.743Z,96.4
2022-11-17T09:11:00.744Z,96.9
2022-11-17T09:16:00.718Z,95.8
2022-11-17T09:21:00.721Z,95.2
2022-11-17T09:26:00.737Z,93.9
2022-11-17T09:31:01.536Z,92.8
2022-11-17T09:36:00.694Z,93.9
2022-11-17T09:41:00.709Z,92.8
2022-11-17T09:46:04.576Z,91.4
2022-11-17T09:51:00.707Z,91.5
2022-11-17T09:56:00.690Z,91.5
2022-11-17T10:01:00.672Z,91.4
2022-11-17T10:06:00.676Z,93.3
2022-11-17T10:11:00.686Z,92.9
2022-11-17T10:16:00.669Z,91.3
2022-11-17T10:21:00.667Z,91.8
2022-11-17T10:26:00.669Z,92.4
2022-11-17T10:31:00.666Z,91.6
2022-11-17T10:36:00.659Z,91.7
2022-11-17T10:41:00.652Z,92
2022-11-17T10:46:00.655Z,90.6
2022-11-17T10:51:00.651Z,90.5
2022-11-17T10:56:00.624Z,90.8
2022-11-17T11:01:00.654Z,90.9
2022-11-17T11:06:00.641Z,90.3
2022-11-17T11:11:00.633Z,89
2022-11-17T11:16:00.618Z,87.2
2022-11-17T11:21:00.610Z,88.9
2022-11-17T11:26:00.618Z,88.9
2022-11-17T11:31:00.595Z,87.7
2022-11-17T11:36:00.589Z,87.2
2022-11-17T11:41:00.594Z,87
2022-11-17T11:46:00.580Z,86.9
2022-11-17T11:51:00.575Z,86.1
2022-11-17T11:56:00.573Z,86.1
2022-11-17T12:01:00.557Z,86.3
2022-11-17T12:06:00.559Z,86.7
2022-11-17T12:11:00.577Z,88.2
2022-11-17T12:16:00.552Z,88.1
2022-11-17T12:21:00.536Z,88.1
2022-11-17T12:26:00.547Z,88.8
2022-11-17T12:31:03.841Z,88
2022-11-17T12:36:00.521Z,87.1
2022-11-17T12:41:00.534Z,86.7
2022-11-17T12:46:00.511Z,87.5
2022-11-17T12:51:04.574Z,88.5
2022-11-17T12:56:00.540Z,90.1
2022-11-17T13:01:00.547Z,89.5
2022-11-17T13:06:19.972Z,89.8
2022-11-17T13:11:00.501Z,89.3
2022-11-17T13:16:00.477Z,87.8
2022-11-17T13:21:00.484Z,86.5
2022-11-17T13:26:00.489Z,90.5
2022-11-17T13:31:00.478Z,89.2
2022-11-17T13:36:00.453Z,87.7
2022-11-17T13:41:00.460Z,88.1
2022-11-17T13:46:00.455Z,88.6
2022-11-17T13:51:00.462Z,88.4
2022-11-17T13:56:00.445Z,89
2022-11-17T14:01:00.534Z,89.4
2022-11-17T14:06:00.455Z,90.1
2022-11-17T14:11:00.423Z,91.2
2022-11-17T14:16:00.447Z,92.9
2022-11-17T14:21:00.430Z,93.9
2022-11-17T14:26:00.406Z,95
2022-11-17T14:31:00.405Z,95.5
2022-11-17T14:36:00.419Z,96.2
2022-11-17T14:41:00.389Z,97.1
2022-11-17T14:46:00.392Z,97.6
2022-11-17T14:51:00.514Z,97.9
2022-11-17T14:56:00.381Z,98.4
2022-11-17T15:01:00.372Z,99.2
2022-11-17T15:06:00.390Z,99.7
2022-11-17T15:11:00.384Z,99.8
2022-11-17T15:16:00.357Z,100
2022-11-17T15:21:00.598Z,100
2022-11-17T15:26:00.350Z,100
2022-11-17T15:31:00.361Z,100
2022-11-17T15:36:00.379Z,100
2022-11-17T15:41:00.345Z,100
2022-11-17T15:46:00.343Z,100
2022-11-17T15:51:00.345Z,100
2022-11-17T15:56:00.342Z,100
2022-11-17T16:01:00.461Z,100
2022-11-17T16:06:00.325Z,100
2022-11-17T16:11:00.330Z,100
2022-11-17T16:16:00.320Z,100
2022-11-17T16:21:04.297Z,100
2022-11-17T16:26:00.307Z,100
2022-11-17T16:31:00.309Z,100
2022-11-17T16:36:00.324Z,100
2022-11-17T16:46:00.290Z,100
2022-11-17T16:51:00.304Z,100
2022-11-17T16:56:00.336Z,100
2022-11-17T17:01:00.288Z,100
2022-11-17T17:06:00.290Z,100
2022-11-17T17:11:00.288Z,100
2022-11-17T17:16:00.264Z,100
2022-11-17T17:21:00.275Z,100
2022-11-17T17:26:00.273Z,100
2022-11-17T17:31:00.251Z,100
2022-11-17T17:36:00.284Z,100
2022-11-17T17:41:00.240Z,100
2022-11-17T17:46:00.262Z,100
2022-11-17T17:51:00.248Z,100
2022-11-17T17:56:00.237Z,100
2022-11-17T18:01:00.230Z,100
2022-11-17T18:06:00.246Z,100
2022-11-17T18:11:00.236Z,100
2022-11-17T18:21:00.223Z,100
2022-11-17T18:26:00.206Z,100
2022-11-17T18:31:00.231Z,100
2022-11-17T18:36:00.210Z,100
2022-11-17T18:41:00.202Z,100
2022-11-17T18:46:00.220Z,100
2022-11-17T18:51:18.525Z,100
2022-11-17T18:56:00.221Z,100
2022-11-17T19:01:00.244Z,100
2022-11-17T19:06:00.196Z,100
2022-11-17T19:11:04.776Z,100
2022-11-17T19:16:00.192Z,100
2022-11-17T19:21:00.174Z,100
2022-11-17T19:26:00.173Z,100
2022-11-17T19:31:00.189Z,100
2022-11-17T19:36:00.180Z,100
2022-11-17T19:41:00.155Z,100
2022-11-17T19:46:00.165Z,100
2022-11-17T19:51:00.157Z,100
2022-11-17T19:56:00.148Z,100
2022-11-17T20:01:00.227Z,100
2022-11-17T20:06:00.176Z,100
2022-11-17T20:11:00.134Z,100
2022-11-17T20:16:00.156Z,100
2022-11-17T20:21:00.175Z,100
2022-11-17T20:26:00.141Z,100
2022-11-17T20:31:00.137Z,100
2022-11-17T20:36:00.162Z,100
2022-11-17T20:41:00.132Z,100
2022-11-17T20:46:00.144Z,100
2022-11-17T20:51:00.165Z,100
2022-11-17T20:56:00.116Z,100
2022-11-17T21:01:00.201Z,100
2022-11-17T21:06:00.128Z,100
2022-11-17T21:11:00.104Z,100
2022-11-17T21:16:00.104Z,100
2022-11-17T21:26:00.102Z,100
2022-11-17T21:31:00.096Z,100
2022-11-17T21:36:00.107Z,100
2022-11-17T21:41:00.089Z,100
2022-11-17T21:51:00.092Z,100
2022-11-17T21:56:00.059Z,100
2022-11-17T22:01:00.102Z,100
2022-11-17T22:06:02.407Z,100
2022-11-17T22:11:00.103Z,100
2022-11-17T22:21:00.033Z,100
2022-11-17T22:26:00.035Z,100
2022-11-17T22:31:00.030Z,100
2022-11-17T22:36:00.034Z,100
2022-11-17T22:41:00.016Z,100
2022-11-17T22:46:00.022Z,100
2022-11-17T22:51:00.019Z,100
2022-11-17T22:56:00.021Z,100
2022-11-17T23:16:00.018Z,100
2022-11-17T23:20:59.983Z,99.8
2022-11-17T23:25:59.983Z,100
2022-11-17T23:30:59.987Z,100
2022-11-17T23:35:59.967Z,100
2022-11-17T23:40:59.961Z,100
2022-11-17T23:45:59.986Z,100
2022-11-17T23:50:59.972Z,100
2022-11-17T23:55:59.952Z,100
